Time;durP1;ratioP1;P1;durP2;ratioP2;P2;SDS_P1;SDS_P2;PMS_P1;PMS_P2;Temp;Humidity;BMP_temperature;BMP_pressure;BME280_temperature;BME280_humidity;BME280_pressure;Samples;Min_cycle;Max_cycle;Signal;HPM_P1;HPM_P2
2022/05/28 00:00:13;;;;;;;3.33;2.10;;;;;;;;;;5064095;28;24990;-45
2022/05/28 00:02:38;;;;;;;3.90;2.20;;;;;;;;;;5067212;28;24430;-44
2022/05/28 00:05:03;;;;;;;5.43;2.60;;;;;;;;;;5066104;28;24837;-44
2022/05/28 00:07:29;;;;;;;5.80;2.40;;;;;;;;;;5063645;28;24836;-44
2022/05/28 00:09:54;;;;;;;4.00;2.20;;;;;;;;;;5053311;28;24416;-44
2022/05/28 00:12:22;;;;;;;3.20;2.00;;;;;;;;;;5064078;28;24476;-45
2022/05/28 00:14:47;;;;;;;3.72;2.20;;;;;;;;;;5061319;28;24470;-45
2022/05/28 00:17:12;;;;;;;4.25;2.20;;;;;;;;;;5068898;28;24476;-44
2022/05/28 00:19:37;;;;;;;3.13;1.88;;;;;;;;;;5081819;28;24510;-45
2022/05/28 00:22:03;;;;;;;2.80;1.90;;;;;;;;;;5065133;28;24736;-45
2022/05/28 00:24:28;;;;;;;4.13;1.90;;;;;;;;;;5062575;28;24909;-44
2022/05/28 00:26:53;;;;;;;3.55;2.20;;;;;;;;;;5069491;28;24426;-44
2022/05/28 00:29:18;;;;;;;2.17;1.98;;;;;;;;;;5083135;28;24418;-44
2022/05/28 00:31:43;;;;;;;4.17;2.00;;;;;;;;;;5076457;28;24425;-44
2022/05/28 00:34:08;;;;;;;3.75;1.95;;;;;;;;;;5085082;28;24414;-45
2022/05/28 00:36:33;;;;;;;3.05;1.90;;;;;;;;;;5081190;28;24422;-45
2022/05/28 00:38:59;;;;;;;4.67;2.00;;;;;;;;;;5084206;28;24418;-45
2022/05/28 00:41:24;;;;;;;3.63;1.80;;;;;;;;;;5077031;28;24417;-44
2022/05/28 00:43:49;;;;;;;3.08;1.40;;;;;;;;;;5084222;28;24515;-44
2022/05/28 00:46:18;;;;;;;3.90;2.00;;;;;;;;;;5075912;28;22543;-44
2022/05/28 00:48:44;;;;;;;4.38;1.80;;;;;;;;;;5076629;28;24437;-45
2022/05/28 00:51:14;;;;;;;4.13;1.85;;;;;;;;;;5048851;28;24534;-44
2022/05/28 00:53:39;;;;;;;3.35;1.60;;;;;;;;;;5065601;28;24975;-44
2022/05/28 00:56:05;;;;;;;4.20;2.00;;;;;;;;;;5058287;28;24431;-45
2022/05/28 00:58:31;;;;;;;4.05;1.75;;;;;;;;;;5056019;28;24990;-45
2022/05/28 01:00:56;;;;;;;3.80;1.83;;;;;;;;;;5057299;28;25007;-45
2022/05/28 01:03:29;;;;;;;3.80;1.63;;;;;;;;;;5064514;28;24462;-45
2022/05/28 01:06:03;;;;;;;2.65;1.70;;;;;;;;;;5046963;28;25024;-45
2022/05/28 01:08:43;;;;;;;3.78;1.67;;;;;;;;;;5069040;28;24414;-45
2022/05/28 01:11:19;;;;;;;3.75;1.70;;;;;;;;;;5062981;28;24454;-45
2022/05/28 01:13:50;;;;;;;2.88;1.70;;;;;;;;;;5075707;28;25058;-45
2022/05/28 01:16:19;;;;;;;4.47;2.15;;;;;;;;;;5064472;28;24483;-44
2022/05/28 01:18:47;;;;;;;4.13;1.90;;;;;;;;;;5069549;28;24427;-44
2022/05/28 01:21:19;;;;;;;4.60;2.15;;;;;;;;;;5059967;28;24427;-44
2022/05/28 01:23:50;;;;;;;4.10;1.90;;;;;;;;;;5061011;28;24964;-44
2022/05/28 01:26:20;;;;;;;4.10;1.80;;;;;;;;;;5077903;28;24426;-45
2022/05/28 01:28:48;;;;;;;4.88;1.70;;;;;;;;;;5064670;28;24546;-44
2022/05/28 01:31:14;;;;;;;5.63;1.87;;;;;;;;;;5065218;28;24417;-44
2022/05/28 01:33:41;;;;;;;3.08;2.08;;;;;;;;;;5074054;28;24545;-44
2022/05/28 01:36:08;;;;;;;3.53;1.70;;;;;;;;;;5072965;28;24525;-45
2022/05/28 01:38:34;;;;;;;3.85;1.70;;;;;;;;;;5059934;28;24427;-44
2022/05/28 01:41:00;;;;;;;4.20;1.90;;;;;;;;;;5064219;28;24411;-44
2022/05/28 01:43:26;;;;;;;4.30;1.60;;;;;;;;;;5077079;28;24507;-45
2022/05/28 01:45:52;;;;;;;4.22;1.70;;;;;;;;;;5081470;28;25056;-45
2022/05/28 01:48:18;;;;;;;3.17;1.70;;;;;;;;;;5084673;28;24511;-44
2022/05/28 01:50:45;;;;;;;4.03;1.60;;;;;;;;;;5082516;28;24431;-44
2022/05/28 01:53:11;;;;;;;2.50;1.40;;;;;;;;;;5084835;28;25117;-44
2022/05/28 01:55:39;;;;;;;3.70;1.60;;;;;;;;;;5083951;28;24895;-44
2022/05/28 01:58:04;;;;;;;3.72;1.70;;;;;;;;;;5084132;28;24422;-44
2022/05/28 02:00:30;;;;;;;2.88;1.90;;;;;;;;;;5081462;28;24454;-45
2022/05/28 02:02:57;;;;;;;3.65;1.90;;;;;;;;;;5082817;28;25117;-44
2022/05/28 02:05:22;;;;;;;4.05;1.90;;;;;;;;;;5084598;28;24421;-44
2022/05/28 02:07:47;;;;;;;4.20;2.00;;;;;;;;;;5086071;28;24429;-44
2022/05/28 02:10:14;;;;;;;3.70;1.90;;;;;;;;;;5085192;28;24426;-44
2022/05/28 02:12:42;;;;;;;4.05;1.80;;;;;;;;;;5082354;28;25613;-44
2022/05/28 02:15:07;;;;;;;4.40;2.00;;;;;;;;;;5084937;28;24981;-47
2022/05/28 02:17:39;;;;;;;4.68;2.22;;;;;;;;;;5085023;28;24491;-44
2022/05/28 02:20:09;;;;;;;3.70;1.90;;;;;;;;;;5084393;28;24483;-43
2022/05/28 02:22:38;;;;;;;4.82;1.83;;;;;;;;;;5085911;28;24430;-43
2022/05/28 02:25:09;;;;;;;3.38;1.70;;;;;;;;;;5085291;28;24509;-43
2022/05/28 02:27:35;;;;;;;2.85;2.10;;;;;;;;;;5085307;28;24421;-45
2022/05/28 02:30:01;;;;;;;4.47;1.80;;;;;;;;;;5082847;28;24509;-44
2022/05/28 02:32:26;;;;;;;2.92;1.80;;;;;;;;;;5084422;28;24522;-44
2022/05/28 02:34:51;;;;;;;4.43;1.90;;;;;;;;;;5088688;28;24422;-43
2022/05/28 02:37:18;;;;;;;4.40;1.65;;;;;;;;;;5089284;28;24761;-44
2022/05/28 02:39:43;;;;;;;4.10;2.20;;;;;;;;;;5088370;28;24422;-44
2022/05/28 02:42:08;;;;;;;4.07;1.90;;;;;;;;;;5091409;28;25005;-44
2022/05/28 02:44:33;;;;;;;3.60;2.00;;;;;;;;;;5105054;28;24426;-43
2022/05/28 02:46:58;;;;;;;4.47;2.03;;;;;;;;;;5102019;28;24432;-44
2022/05/28 02:49:25;;;;;;;5.60;2.17;;;;;;;;;;5103241;28;24431;-44
2022/05/28 02:51:50;;;;;;;3.80;2.00;;;;;;;;;;5094979;28;24995;-44
2022/05/28 02:54:15;;;;;;;3.67;2.10;;;;;;;;;;5109168;28;24421;-44
2022/05/28 02:56:42;;;;;;;4.87;2.10;;;;;;;;;;5108930;28;24784;-44
2022/05/28 02:59:07;;;;;;;4.78;2.20;;;;;;;;;;5107863;28;24441;-44
2022/05/28 03:01:33;;;;;;;3.30;1.70;;;;;;;;;;5098143;28;24454;-44
2022/05/28 03:03:59;;;;;;;3.42;1.73;;;;;;;;;;5105419;28;24494;-44
2022/05/28 03:06:24;;;;;;;5.30;2.10;;;;;;;;;;5107605;28;24572;-44
2022/05/28 03:08:49;;;;;;;4.37;1.90;;;;;;;;;;5105014;28;24494;-47
2022/05/28 03:11:14;;;;;;;5.47;2.10;;;;;;;;;;5105509;28;24772;-46
2022/05/28 03:13:41;;;;;;;3.30;1.70;;;;;;;;;;5107488;28;24428;-46
2022/05/28 03:16:06;;;;;;;4.53;1.90;;;;;;;;;;5100619;28;24430;-47
2022/05/28 03:18:31;;;;;;;3.17;1.58;;;;;;;;;;5106299;28;25095;-47
2022/05/28 03:20:56;;;;;;;3.60;1.85;;;;;;;;;;5092688;28;24420;-47
2022/05/28 03:23:21;;;;;;;3.95;1.90;;;;;;;;;;5082652;28;24555;-44
2022/05/28 03:25:46;;;;;;;5.50;1.80;;;;;;;;;;5077624;28;24479;-44
2022/05/28 03:28:11;;;;;;;3.22;1.60;;;;;;;;;;5091081;28;24442;-44
2022/05/28 03:30:36;;;;;;;6.50;2.00;;;;;;;;;;5093435;28;24425;-44
2022/05/28 03:33:02;;;;;;;5.50;1.80;;;;;;;;;;5107151;28;24961;-45
2022/05/28 03:35:27;;;;;;;4.10;2.00;;;;;;;;;;5108130;28;24508;-44
2022/05/28 03:37:52;;;;;;;3.87;1.80;;;;;;;;;;5103895;28;24902;-44
2022/05/28 03:40:18;;;;;;;3.45;1.70;;;;;;;;;;5100958;28;24451;-44
2022/05/28 03:42:43;;;;;;;3.97;1.77;;;;;;;;;;5104510;28;24434;-45
2022/05/28 03:45:08;;;;;;;2.90;1.70;;;;;;;;;;5103827;28;24863;-45
2022/05/28 03:47:33;;;;;;;3.60;1.63;;;;;;;;;;5099718;28;24456;-44
2022/05/28 03:49:59;;;;;;;3.30;1.60;;;;;;;;;;5094216;28;24417;-44
2022/05/28 03:52:24;;;;;;;3.77;1.60;;;;;;;;;;5093584;28;24442;-44
2022/05/28 03:54:49;;;;;;;3.70;1.60;;;;;;;;;;5086430;28;24460;-45
2022/05/28 03:57:20;;;;;;;3.37;1.77;;;;;;;;;;5103904;28;24426;-44
2022/05/28 03:59:45;;;;;;;5.60;1.63;;;;;;;;;;5096475;28;24508;-45
2022/05/28 04:02:11;;;;;;;4.55;1.52;;;;;;;;;;5095615;28;24522;-44
2022/05/28 04:04:36;;;;;;;4.63;1.70;;;;;;;;;;5103152;28;24516;-44
2022/05/28 04:07:02;;;;;;;3.35;1.65;;;;;;;;;;5101918;28;24859;-44
2022/05/28 04:09:27;;;;;;;4.60;1.50;;;;;;;;;;5101144;28;24424;-45
2022/05/28 04:11:53;;;;;;;5.20;1.50;;;;;;;;;;5097297;28;24422;-44
2022/05/28 04:14:18;;;;;;;2.60;1.20;;;;;;;;;;5102561;28;24413;-45
2022/05/28 04:16:43;;;;;;;3.22;1.40;;;;;;;;;;5095631;28;24509;-44
2022/05/28 04:19:09;;;;;;;4.20;1.60;;;;;;;;;;5103902;28;25192;-45
2022/05/28 04:21:34;;;;;;;4.93;1.50;;;;;;;;;;5092581;28;24418;-44
2022/05/28 04:24:00;;;;;;;3.33;1.50;;;;;;;;;;5092074;28;24429;-45
2022/05/28 04:26:25;;;;;;;2.97;1.60;;;;;;;;;;5087698;28;24451;-44
2022/05/28 04:28:50;;;;;;;3.75;1.50;;;;;;;;;;5082288;28;24461;-45
2022/05/28 04:31:15;;;;;;;5.45;1.70;;;;;;;;;;5080684;28;24485;-44
2022/05/28 04:33:40;;;;;;;4.77;1.30;;;;;;;;;;5086076;28;25014;-45
2022/05/28 04:36:06;;;;;;;3.15;1.42;;;;;;;;;;5086365;28;25027;-44
2022/05/28 04:38:31;;;;;;;2.03;1.13;;;;;;;;;;5086551;28;24954;-44
2022/05/28 04:40:56;;;;;;;2.50;1.40;;;;;;;;;;5084119;28;24430;-44
2022/05/28 04:43:21;;;;;;;3.55;1.55;;;;;;;;;;5070083;28;24500;-44
2022/05/28 04:45:47;;;;;;;3.70;1.60;;;;;;;;;;5060226;28;25028;-44
2022/05/28 04:48:12;;;;;;;4.47;1.50;;;;;;;;;;5062340;28;24765;-44
2022/05/28 04:50:38;;;;;;;5.20;1.80;;;;;;;;;;5054309;28;24418;-46
2022/05/28 04:53:03;;;;;;;3.20;1.30;;;;;;;;;;5079565;28;24520;-46
2022/05/28 04:55:28;;;;;;;4.73;1.80;;;;;;;;;;5060360;28;24475;-46
2022/05/28 04:57:53;;;;;;;2.25;1.20;;;;;;;;;;5064901;28;24772;-46
2022/05/28 05:00:19;;;;;;;6.30;1.80;;;;;;;;;;5054765;28;24454;-46
2022/05/28 05:02:44;;;;;;;4.10;1.70;;;;;;;;;;5056783;28;24797;-46
2022/05/28 05:05:10;;;;;;;3.65;1.60;;;;;;;;;;5068912;28;24415;-46
2022/05/28 05:07:35;;;;;;;4.55;2.10;;;;;;;;;;5066686;28;24417;-46
2022/05/28 05:10:00;;;;;;;3.07;1.60;;;;;;;;;;5063223;28;24984;-45
2022/05/28 05:12:26;;;;;;;4.05;1.88;;;;;;;;;;5053454;28;24480;-45
2022/05/28 05:14:51;;;;;;;5.32;1.88;;;;;;;;;;5076358;28;25252;-46
2022/05/28 05:17:16;;;;;;;3.90;1.70;;;;;;;;;;5068358;28;24972;-46
2022/05/28 05:19:41;;;;;;;2.88;1.60;;;;;;;;;;5049644;28;24419;-46
2022/05/28 05:22:06;;;;;;;3.20;1.90;;;;;;;;;;5046577;28;24538;-46
2022/05/28 05:24:33;;;;;;;4.53;2.07;;;;;;;;;;5059366;28;24765;-46
2022/05/28 05:26:59;;;;;;;5.50;2.13;;;;;;;;;;5066318;28;24414;-47
2022/05/28 05:29:24;;;;;;;3.70;2.00;;;;;;;;;;5066397;28;24929;-46
2022/05/28 05:31:49;;;;;;;4.70;2.20;;;;;;;;;;5065672;28;24532;-46
2022/05/28 05:34:14;;;;;;;2.45;1.75;;;;;;;;;;5066718;28;24402;-44
2022/05/28 05:36:39;;;;;;;2.80;1.70;;;;;;;;;;5066145;28;24391;-46
2022/05/28 05:39:04;;;;;;;2.78;1.58;;;;;;;;;;5072933;28;24444;-46
2022/05/28 05:41:30;;;;;;;3.63;1.90;;;;;;;;;;5078279;28;24465;-46
2022/05/28 05:43:55;;;;;;;2.60;1.80;;;;;;;;;;5081740;28;24445;-46
2022/05/28 05:46:20;;;;;;;2.33;1.63;;;;;;;;;;5083519;28;24418;-46
2022/05/28 05:48:45;;;;;;;3.57;1.60;;;;;;;;;;5081207;28;24477;-46
2022/05/28 05:51:13;;;;;;;3.30;1.30;;;;;;;;;;5079535;28;25054;-46
2022/05/28 05:53:38;;;;;;;3.00;1.50;;;;;;;;;;5064582;28;24474;-46
2022/05/28 05:56:04;;;;;;;2.78;1.40;;;;;;;;;;5058582;28;24454;-47
2022/05/28 05:58:29;;;;;;;2.93;1.10;;;;;;;;;;5077890;28;24422;-46
2022/05/28 06:00:54;;;;;;;4.20;1.30;;;;;;;;;;5076055;28;25353;-46
2022/05/28 06:03:20;;;;;;;2.00;1.00;;;;;;;;;;5064512;28;25019;-45
2022/05/28 06:05:45;;;;;;;1.80;0.93;;;;;;;;;;5079890;28;24422;-46
2022/05/28 06:08:11;;;;;;;1.60;1.20;;;;;;;;;;5078619;28;24430;-46
2022/05/28 06:10:36;;;;;;;1.97;1.10;;;;;;;;;;5072027;28;24463;-45
2022/05/28 06:13:01;;;;;;;1.00;0.90;;;;;;;;;;5070646;28;24423;-46
2022/05/28 06:15:26;;;;;;;2.37;0.90;;;;;;;;;;5085850;28;24398;-45
2022/05/28 06:17:51;;;;;;;0.98;0.90;;;;;;;;;;5072524;28;25961;-46
2022/05/28 06:20:16;;;;;;;0.98;0.70;;;;;;;;;;5066203;28;24461;-45
2022/05/28 06:22:42;;;;;;;1.23;0.90;;;;;;;;;;5066812;28;24773;-45
2022/05/28 06:25:07;;;;;;;1.80;0.80;;;;;;;;;;5067092;28;24928;-45
2022/05/28 06:27:33;;;;;;;1.30;0.90;;;;;;;;;;5064744;28;24474;-45
2022/05/28 06:29:58;;;;;;;0.90;0.60;;;;;;;;;;5073846;28;24479;-46
2022/05/28 06:32:23;;;;;;;0.77;0.68;;;;;;;;;;5073868;28;24427;-45
2022/05/28 06:34:48;;;;;;;0.70;0.60;;;;;;;;;;5080989;28;24937;-45
2022/05/28 06:37:15;;;;;;;0.73;0.73;;;;;;;;;;5084675;28;24657;-45
2022/05/28 06:39:40;;;;;;;1.10;0.60;;;;;;;;;;5084663;28;24434;-46
2022/05/28 06:42:05;;;;;;;0.80;0.60;;;;;;;;;;5074845;28;25097;-46
2022/05/28 06:44:30;;;;;;;2.30;0.80;;;;;;;;;;5065340;28;24478;-45
2022/05/28 06:46:56;;;;;;;1.03;0.70;;;;;;;;;;5060655;28;24430;-46
2022/05/28 06:49:21;;;;;;;1.30;0.70;;;;;;;;;;5060203;28;24944;-45
2022/05/28 06:51:47;;;;;;;2.00;0.80;;;;;;;;;;5068900;28;24431;-45
2022/05/28 06:54:12;;;;;;;1.70;0.90;;;;;;;;;;5068668;28;24792;-46
2022/05/28 06:56:38;;;;;;;2.10;0.80;;;;;;;;;;5072792;28;24442;-45
2022/05/28 06:59:03;;;;;;;0.83;0.80;;;;;;;;;;5063250;28;24870;-46
2022/05/28 07:01:28;;;;;;;1.83;1.00;;;;;;;;;;5054972;28;24441;-46
2022/05/28 07:03:53;;;;;;;3.87;1.17;;;;;;;;;;5056864;28;24531;-45
2022/05/28 07:06:18;;;;;;;1.30;0.93;;;;;;;;;;5065990;28;24978;-45
2022/05/28 07:08:44;;;;;;;1.90;0.80;;;;;;;;;;5081204;28;24414;-46
2022/05/28 07:11:10;;;;;;;2.20;0.80;;;;;;;;;;5070573;28;24423;-46
2022/05/28 07:13:35;;;;;;;2.50;1.10;;;;;;;;;;5080280;28;24422;-45
2022/05/28 07:16:01;;;;;;;2.60;0.90;;;;;;;;;;5072262;28;24429;-46
2022/05/28 07:18:26;;;;;;;1.93;1.10;;;;;;;;;;5057734;28;25042;-45
2022/05/28 07:20:51;;;;;;;1.83;0.80;;;;;;;;;;5066434;28;24520;-45
2022/05/28 07:23:21;;;;;;;3.40;0.90;;;;;;;;;;5067064;28;24422;-48
2022/05/28 07:25:46;;;;;;;1.85;1.30;;;;;;;;;;5058827;28;24426;-45
2022/05/28 07:28:31;;;;;;;1.50;1.10;;;;;;;;;;5082190;28;24778;-45
2022/05/28 07:31:03;;;;;;;1.80;1.10;;;;;;;;;;5052054;28;24529;-45
2022/05/28 07:33:29;;;;;;;1.70;1.00;;;;;;;;;;5069578;28;24442;-46
2022/05/28 07:35:55;;;;;;;3.67;1.20;;;;;;;;;;5067201;28;24433;-52
2022/05/28 07:38:21;;;;;;;2.90;1.20;;;;;;;;;;5069126;28;24402;-45
2022/05/28 07:40:46;;;;;;;2.78;1.10;;;;;;;;;;5066695;28;24961;-45
2022/05/28 07:43:12;;;;;;;2.60;1.10;;;;;;;;;;5067700;28;24658;-46
2022/05/28 07:45:38;;;;;;;1.53;1.17;;;;;;;;;;5065559;28;24445;-46
2022/05/28 07:48:03;;;;;;;3.70;1.50;;;;;;;;;;5068586;28;24406;-46
2022/05/28 07:50:29;;;;;;;2.10;1.20;;;;;;;;;;5066678;28;24422;-45
2022/05/28 07:52:54;;;;;;;4.30;1.33;;;;;;;;;;5065628;28;24391;-45
2022/05/28 07:55:19;;;;;;;1.50;1.30;;;;;;;;;;5067033;28;24525;-45
2022/05/28 07:57:44;;;;;;;3.97;1.60;;;;;;;;;;5066477;28;24781;-45
2022/05/28 08:00:10;;;;;;;4.67;1.50;;;;;;;;;;5067098;28;24426;-46
2022/05/28 08:02:35;;;;;;;2.07;1.00;;;;;;;;;;5066535;28;24460;-46
2022/05/28 08:05:00;;;;;;;2.45;1.15;;;;;;;;;;5066004;28;24459;-46
2022/05/28 08:07:25;;;;;;;2.42;1.40;;;;;;;;;;5065984;28;24744;-45
2022/05/28 08:09:51;;;;;;;4.30;1.43;;;;;;;;;;5066556;28;24419;-45
2022/05/28 08:12:16;;;;;;;4.13;1.40;;;;;;;;;;5065852;28;24452;-46
2022/05/28 08:14:41;;;;;;;3.00;1.30;;;;;;;;;;5064943;28;25055;-45
2022/05/28 08:17:06;;;;;;;1.70;1.13;;;;;;;;;;5068114;28;24399;-45
2022/05/28 08:19:31;;;;;;;3.70;1.40;;;;;;;;;;5066201;28;25027;-46
2022/05/28 08:24:41;;;;;;;2.43;1.43;;;;;;;;;;5046149;28;24837;-46
2022/05/28 08:27:06;;;;;;;3.63;1.30;;;;;;;;;;5047334;28;24395;-46
2022/05/28 08:29:31;;;;;;;4.10;1.63;;;;;;;;;;5067405;28;24478;-46
2022/05/28 08:31:56;;;;;;;2.07;1.50;;;;;;;;;;5063463;28;24414;-45
2022/05/28 08:34:21;;;;;;;2.55;1.45;;;;;;;;;;5047630;28;24387;-46
2022/05/28 08:36:46;;;;;;;4.13;1.30;;;;;;;;;;5046841;28;24502;-46
2022/05/28 08:39:11;;;;;;;3.38;1.60;;;;;;;;;;5065529;28;24440;-45
2022/05/28 08:41:57;;;;;;;2.27;1.40;;;;;;;;;;5066267;28;24391;-45
2022/05/28 08:44:24;;;;;;;2.90;1.50;;;;;;;;;;5065253;28;24438;-46
2022/05/28 08:47:04;;;;;;;2.80;1.70;;;;;;;;;;5063108;28;24419;-45
2022/05/28 08:49:30;;;;;;;2.83;1.30;;;;;;;;;;5045535;28;24858;-45
2022/05/28 08:52:00;;;;;;;2.50;1.30;;;;;;;;;;5051710;28;24773;-46
2022/05/28 08:54:30;;;;;;;1.23;1.10;;;;;;;;;;5064014;28;25224;-46
2022/05/28 08:56:57;;;;;;;3.38;1.63;;;;;;;;;;5059160;28;24494;-45
2022/05/28 08:59:28;;;;;;;2.25;1.50;;;;;;;;;;5045090;28;24995;-45
2022/05/28 09:01:54;;;;;;;1.40;1.30;;;;;;;;;;5046230;28;24422;-46
2022/05/28 09:04:30;;;;;;;1.85;1.10;;;;;;;;;;5045348;28;24430;-46
2022/05/28 09:06:58;;;;;;;1.95;1.45;;;;;;;;;;5055514;28;24414;-45
2022/05/28 09:09:30;;;;;;;3.30;1.67;;;;;;;;;;5065427;28;24934;-45
2022/05/28 09:11:55;;;;;;;2.53;1.23;;;;;;;;;;5066838;28;25038;-46
2022/05/28 09:14:22;;;;;;;5.45;1.27;;;;;;;;;;5066649;28;25227;-45
2022/05/28 09:16:49;;;;;;;3.42;1.60;;;;;;;;;;5066871;28;24470;-46
2022/05/28 09:19:17;;;;;;;1.90;1.30;;;;;;;;;;5066354;28;24395;-46
2022/05/28 09:21:43;;;;;;;2.10;1.20;;;;;;;;;;5066818;28;24433;-45
2022/05/28 09:24:22;;;;;;;2.10;1.20;;;;;;;;;;5066346;28;24445;-45
2022/05/28 09:27:00;;;;;;;3.55;1.60;;;;;;;;;;5066726;28;24977;-45
2022/05/28 09:29:37;;;;;;;3.70;1.23;;;;;;;;;;5066748;28;24448;-46
2022/05/28 09:32:05;;;;;;;1.70;1.27;;;;;;;;;;5066377;28;24441;-45
2022/05/28 09:34:51;;;;;;;3.17;1.30;;;;;;;;;;5066572;28;24486;-45
2022/05/28 09:37:31;;;;;;;2.40;1.30;;;;;;;;;;5065599;28;24407;-45
2022/05/28 09:40:02;;;;;;;2.90;1.40;;;;;;;;;;5066435;28;24396;-45
2022/05/28 09:42:30;;;;;;;2.70;1.50;;;;;;;;;;5073231;28;24894;-46
2022/05/28 09:45:18;;;;;;;4.20;1.50;;;;;;;;;;5086722;28;24402;-45
2022/05/28 09:47:47;;;;;;;2.90;1.38;;;;;;;;;;5086446;28;24402;-44
2022/05/28 09:50:21;;;;;;;3.90;2.00;;;;;;;;;;5086279;28;24382;-44
2022/05/28 09:55:39;;;;;;;2.97;1.50;;;;;;;;;;5086710;28;24447;-45
2022/05/28 09:58:05;;;;;;;2.28;1.15;;;;;;;;;;5086354;28;24402;-45
2022/05/28 10:00:30;;;;;;;3.90;1.20;;;;;;;;;;5086594;28;24421;-46
2022/05/28 10:05:57;;;;;;;1.80;1.25;;;;;;;;;;5086777;28;24446;-45
2022/05/28 10:08:29;;;;;;;1.70;1.10;;;;;;;;;;5086402;28;24397;-46
2022/05/28 10:10:55;;;;;;;3.13;1.50;;;;;;;;;;5086198;28;24459;-46
2022/05/28 10:13:24;;;;;;;2.70;1.10;;;;;;;;;;5086071;28;24728;-46
2022/05/28 10:15:50;;;;;;;6.40;1.30;;;;;;;;;;5086642;28;24949;-45
2022/05/28 10:18:17;;;;;;;4.90;1.80;;;;;;;;;;5081649;28;24407;-45
2022/05/28 10:20:42;;;;;;;3.90;1.58;;;;;;;;;;5066144;28;24390;-45
2022/05/28 10:23:13;;;;;;;1.33;1.20;;;;;;;;;;5065562;28;24752;-45
2022/05/28 10:25:50;;;;;;;3.42;1.50;;;;;;;;;;5065978;28;24456;-45
2022/05/28 10:28:33;;;;;;;3.28;1.30;;;;;;;;;;5065840;28;24874;-45
2022/05/28 10:30:59;;;;;;;2.05;1.30;;;;;;;;;;5066019;28;24390;-45
2022/05/28 10:33:29;;;;;;;3.10;1.20;;;;;;;;;;5065801;28;24437;-45
2022/05/28 10:36:04;;;;;;;2.50;1.20;;;;;;;;;;5065998;28;24745;-45
2022/05/28 10:38:29;;;;;;;1.90;1.13;;;;;;;;;;5065802;28;25006;-45
2022/05/28 10:40:56;;;;;;;1.50;1.00;;;;;;;;;;5065920;28;24386;-45
2022/05/28 10:43:27;;;;;;;1.50;1.10;;;;;;;;;;5080826;28;24475;-45
2022/05/28 10:45:59;;;;;;;2.60;1.20;;;;;;;;;;5085914;28;24393;-45
2022/05/28 10:48:30;;;;;;;2.15;1.40;;;;;;;;;;5085715;28;24517;-45
2022/05/28 10:51:00;;;;;;;2.42;1.10;;;;;;;;;;5086190;28;24386;-46
2022/05/28 10:53:44;;;;;;;2.47;1.10;;;;;;;;;;5086120;28;24477;-46
2022/05/28 10:56:17;;;;;;;1.98;1.10;;;;;;;;;;5089693;28;24493;-46
2022/05/28 10:58:43;;;;;;;2.35;1.20;;;;;;;;;;5089509;28;24428;-46
2022/05/28 11:01:17;;;;;;;2.70;1.50;;;;;;;;;;5089342;28;24390;-46
2022/05/28 11:03:51;;;;;;;2.60;1.20;;;;;;;;;;5089381;28;24468;-45
2022/05/28 11:06:32;;;;;;;2.08;1.10;;;;;;;;;;5084836;28;24805;-46
2022/05/28 11:09:04;;;;;;;1.40;1.10;;;;;;;;;;5068013;28;24399;-46
2022/05/28 11:11:34;;;;;;;2.70;1.25;;;;;;;;;;5061764;28;24414;-45
2022/05/28 11:13:59;;;;;;;2.53;1.27;;;;;;;;;;5046026;28;24967;-45
2022/05/28 11:16:34;;;;;;;1.50;1.10;;;;;;;;;;5048739;28;24461;-46
2022/05/28 11:19:05;;;;;;;2.95;1.10;;;;;;;;;;5049186;28;24429;-46
2022/05/28 11:21:57;;;;;;;2.38;1.10;;;;;;;;;;5048769;28;24395;-45
2022/05/28 11:24:28;;;;;;;1.92;1.15;;;;;;;;;;5045440;28;24446;-45
2022/05/28 11:26:56;;;;;;;3.65;1.38;;;;;;;;;;5048835;28;24453;-45
2022/05/28 11:29:34;;;;;;;2.78;1.00;;;;;;;;;;5048711;28;25259;-45
2022/05/28 11:32:02;;;;;;;2.10;1.00;;;;;;;;;;5048341;28;24510;-46
2022/05/28 11:34:46;;;;;;;1.57;1.10;;;;;;;;;;5048374;28;24434;-45
2022/05/28 11:37:24;;;;;;;2.00;0.93;;;;;;;;;;5048457;28;25008;-45
2022/05/28 11:39:58;;;;;;;3.67;1.40;;;;;;;;;;5048804;28;24410;-45
2022/05/28 11:42:29;;;;;;;3.80;1.30;;;;;;;;;;5055086;28;24429;-46
2022/05/28 11:44:56;;;;;;;1.80;1.30;;;;;;;;;;5068368;28;24512;-45
2022/05/28 11:47:27;;;;;;;1.48;1.00;;;;;;;;;;5068438;28;24464;-45
2022/05/28 11:52:42;;;;;;;2.30;1.10;;;;;;;;;;5068096;28;24746;-45
2022/05/28 11:55:14;;;;;;;2.60;1.00;;;;;;;;;;5068021;28;24518;-46
2022/05/28 11:57:45;;;;;;;2.95;1.20;;;;;;;;;;5068209;28;24773;-45
2022/05/28 12:00:11;;;;;;;1.70;0.80;;;;;;;;;;5068141;28;24405;-46
2022/05/28 12:02:43;;;;;;;1.23;0.90;;;;;;;;;;5068139;28;25029;-45
2022/05/28 12:05:17;;;;;;;3.72;1.10;;;;;;;;;;5067493;28;24967;-46
2022/05/28 12:07:44;;;;;;;1.90;1.05;;;;;;;;;;5067987;28;24394;-46
2022/05/28 12:10:12;;;;;;;1.58;1.00;;;;;;;;;;5067758;28;25081;-47
2022/05/28 12:13:00;;;;;;;1.50;0.90;;;;;;;;;;5068027;28;24986;-46
2022/05/28 12:15:27;;;;;;;3.35;1.00;;;;;;;;;;5067683;28;24460;-45
2022/05/28 12:18:15;;;;;;;1.10;0.82;;;;;;;;;;5073569;28;24394;-45
2022/05/28 12:20:52;;;;;;;2.88;1.48;;;;;;;;;;5074002;28;24505;-45
2022/05/28 12:23:26;;;;;;;2.63;1.55;;;;;;;;;;5087617;28;24467;-45
2022/05/28 12:25:52;;;;;;;1.85;1.00;;;;;;;;;;5087890;28;24448;-45
2022/05/28 12:28:29;;;;;;;1.30;1.00;;;;;;;;;;5087591;28;24390;-45
2022/05/28 12:30:57;;;;;;;2.30;1.20;;;;;;;;;;5087725;28;24482;-46
2022/05/28 12:33:32;;;;;;;2.90;1.10;;;;;;;;;;5087710;28;24394;-46
2022/05/28 12:36:08;;;;;;;1.67;1.00;;;;;;;;;;5085725;28;24402;-45
2022/05/28 12:38:45;;;;;;;1.38;1.02;;;;;;;;;;5087322;28;24940;-46
2022/05/28 12:41:21;;;;;;;2.20;1.30;;;;;;;;;;5087010;28;24990;-45
2022/05/28 12:44:03;;;;;;;1.10;1.00;;;;;;;;;;5087102;28;24526;-46
2022/05/28 12:46:39;;;;;;;2.00;1.00;;;;;;;;;;5086973;28;25123;-46
2022/05/28 12:49:06;;;;;;;2.40;1.00;;;;;;;;;;5087479;28;24414;-46
2022/05/28 12:51:49;;;;;;;1.35;0.93;;;;;;;;;;5087121;28;24430;-46
2022/05/28 12:54:28;;;;;;;2.70;1.00;;;;;;;;;;5086944;28;24890;-46
2022/05/28 12:57:03;;;;;;;1.10;1.00;;;;;;;;;;5087354;28;24501;-46
2022/05/28 12:59:30;;;;;;;2.60;1.10;;;;;;;;;;5086878;28;24394;-46
2022/05/28 13:02:18;;;;;;;2.28;0.90;;;;;;;;;;5087214;28;24387;-45
2022/05/28 13:04:47;;;;;;;1.65;1.20;;;;;;;;;;5087217;28;24513;-46
2022/05/28 13:07:22;;;;;;;2.15;1.20;;;;;;;;;;5086953;28;24916;-45
2022/05/28 13:09:47;;;;;;;3.60;1.20;;;;;;;;;;5086956;28;24561;-46
2022/05/28 13:12:23;;;;;;;1.80;1.00;;;;;;;;;;5074038;28;25242;-46
2022/05/28 13:14:58;;;;;;;0.88;0.82;;;;;;;;;;5065709;28;25222;-46
2022/05/28 13:17:48;;;;;;;1.60;0.95;;;;;;;;;;5065707;28;24418;-46
2022/05/28 13:20:20;;;;;;;1.70;1.10;;;;;;;;;;5066211;28;24406;-46
2022/05/28 13:23:09;;;;;;;1.95;1.13;;;;;;;;;;5084100;28;24539;-44
2022/05/28 13:25:35;;;;;;;2.03;1.00;;;;;;;;;;5085553;28;24795;-46
2022/05/28 13:28:00;;;;;;;2.65;1.13;;;;;;;;;;5085332;28;24488;-46
2022/05/28 13:30:31;;;;;;;2.22;1.20;;;;;;;;;;5085961;28;24478;-46
2022/05/28 13:33:00;;;;;;;1.60;1.20;;;;;;;;;;5084893;28;24402;-46
2022/05/28 13:35:25;;;;;;;2.17;1.20;;;;;;;;;;5082525;28;24430;-46
2022/05/28 13:37:53;;;;;;;0.90;0.80;;;;;;;;;;5064701;28;24756;-46
2022/05/28 13:40:20;;;;;;;2.28;1.30;;;;;;;;;;5069371;28;24427;-45
2022/05/28 13:42:46;;;;;;;2.50;1.15;;;;;;;;;;5074263;28;24493;-45
2022/05/28 13:45:11;;;;;;;3.43;1.50;;;;;;;;;;5061365;28;24957;-45
2022/05/28 13:47:38;;;;;;;2.93;1.30;;;;;;;;;;5046376;28;24394;-45
2022/05/28 13:50:05;;;;;;;2.30;1.10;;;;;;;;;;5049891;28;24825;-45
2022/05/28 13:52:31;;;;;;;1.70;1.20;;;;;;;;;;5066056;28;25086;-46
2022/05/28 13:54:59;;;;;;;2.78;1.50;;;;;;;;;;5060964;28;24515;-45
2022/05/28 13:57:39;;;;;;;2.10;1.20;;;;;;;;;;5044726;28;24448;-45
2022/05/28 14:00:07;;;;;;;3.23;1.40;;;;;;;;;;5045598;28;25056;-46
2022/05/28 14:02:33;;;;;;;1.92;1.50;;;;;;;;;;5044353;28;24514;-46
2022/05/28 14:04:59;;;;;;;3.87;1.67;;;;;;;;;;5045782;28;24889;-46
2022/05/28 14:07:30;;;;;;;3.08;1.40;;;;;;;;;;5045008;28;24410;-45
2022/05/28 14:09:56;;;;;;;4.30;1.23;;;;;;;;;;5054277;28;24530;-46
2022/05/28 14:12:26;;;;;;;3.05;1.40;;;;;;;;;;5066137;28;24458;-46
2022/05/28 14:14:51;;;;;;;2.65;1.20;;;;;;;;;;5064671;28;24426;-46
2022/05/28 14:17:20;;;;;;;1.70;1.20;;;;;;;;;;5064648;28;24418;-46
2022/05/28 14:19:47;;;;;;;2.08;1.20;;;;;;;;;;5057637;28;24474;-45
2022/05/28 14:22:30;;;;;;;1.52;1.33;;;;;;;;;;5043197;28;24766;-46
2022/05/28 14:24:56;;;;;;;1.80;1.30;;;;;;;;;;5054833;28;24471;-45
2022/05/28 14:27:23;;;;;;;3.37;1.23;;;;;;;;;;5064511;28;24568;-46
2022/05/28 14:29:48;;;;;;;2.60;1.30;;;;;;;;;;5070165;28;24387;-45
2022/05/28 14:32:15;;;;;;;2.78;1.20;;;;;;;;;;5069590;28;24504;-46
2022/05/28 14:34:41;;;;;;;1.90;1.10;;;;;;;;;;5069788;28;24403;-46
2022/05/28 14:37:08;;;;;;;1.30;1.00;;;;;;;;;;5069846;28;24999;-46
2022/05/28 14:39:43;;;;;;;1.50;1.08;;;;;;;;;;5069320;28;24398;-46
2022/05/28 14:42:09;;;;;;;1.50;1.00;;;;;;;;;;5069416;28;25049;-46
2022/05/28 14:44:36;;;;;;;3.70;1.27;;;;;;;;;;5068729;28;24873;-46
2022/05/28 14:47:03;;;;;;;1.50;1.10;;;;;;;;;;5069590;28;24391;-45
2022/05/28 14:49:29;;;;;;;2.30;1.05;;;;;;;;;;5069391;28;24814;-46
2022/05/28 14:51:56;;;;;;;1.95;1.20;;;;;;;;;;5069421;28;24399;-46
2022/05/28 14:54:26;;;;;;;1.85;1.15;;;;;;;;;;5069002;28;24421;-45
2022/05/28 14:56:51;;;;;;;2.33;1.20;;;;;;;;;;5069197;28;24383;-45
2022/05/28 14:59:25;;;;;;;2.50;1.08;;;;;;;;;;5069226;28;24414;-45